Time;durP1;ratioP1;P1;durP2;ratioP2;P2;SDS_P1;SDS_P2;PMS_P1;PMS_P2;Temp;Humidity;BMP_temperature;BMP_pressure;BME280_temperature;BME280_humidity;BME280_pressure;Samples;Min_cycle;Max_cycle;Signal;HPM_P1;HPM_P2
2023/06/06 00:00:28;;;;;;;17.83;9.18;;;16.70;93.40;;;;;;4195488;28;20142;-54
2023/06/06 00:02:31;;;;;;;16.33;9.43;;;16.50;93.60;;;;;;4196381;28;20106;-55
2023/06/06 00:04:35;;;;;;;15.63;8.80;;;16.40;93.80;;;;;;4198619;28;20052;-54
2023/06/06 00:06:44;;;;;;;15.25;8.57;;;16.40;94.00;;;;;;4199818;28;20049;-54
2023/06/06 00:08:46;;;;;;;17.15;9.32;;;16.30;94.00;;;;;;4199569;28;20044;-54
2023/06/06 00:10:48;;;;;;;21.73;9.25;;;16.40;94.10;;;;;;4198839;28;20383;-53
2023/06/06 00:12:52;;;;;;;21.00;10.88;;;16.30;94.20;;;;;;4199782;28;20150;-55
2023/06/06 00:14:59;;;;;;;19.58;10.32;;;16.20;94.40;;;;;;4199811;28;20045;-55
2023/06/06 00:17:01;;;;;;;22.80;12.15;;;16.30;94.20;;;;;;4199298;28;20036;-54
2023/06/06 00:19:03;;;;;;;16.63;10.50;;;16.30;94.20;;;;;;4199512;28;20049;-54
2023/06/06 00:21:08;;;;;;;23.00;10.18;;;16.20;94.20;;;;;;4198488;28;20127;-53
2023/06/06 00:23:12;;;;;;;19.25;10.77;;;16.20;94.20;;;;;;4199456;28;20055;-53
2023/06/06 00:25:16;;;;;;;20.35;11.57;;;16.30;94.20;;;;;;4199452;28;20123;-61
2023/06/06 00:27:19;;;;;;;20.48;10.65;;;16.20;94.30;;;;;;4211443;28;20078;-54
2023/06/06 00:29:21;;;;;;;17.63;9.55;;;16.10;94.50;;;;;;4216062;28;20070;-54
2023/06/06 00:31:23;;;;;;;21.52;10.90;;;16.00;94.70;;;;;;4214681;28;20040;-54
2023/06/06 00:33:25;;;;;;;23.08;12.95;;;16.00;94.60;;;;;;4198160;28;20098;-54
2023/06/06 00:35:27;;;;;;;19.38;11.13;;;16.10;94.50;;;;;;4216153;28;20046;-54
2023/06/06 00:37:29;;;;;;;21.55;11.88;;;16.10;94.60;;;;;;4216238;28;20051;-57
2023/06/06 00:39:33;;;;;;;19.20;11.23;;;16.00;94.70;;;;;;4200081;28;20079;-54
2023/06/06 00:41:35;;;;;;;19.77;11.15;;;15.90;94.90;;;;;;4198755;28;20044;-54
2023/06/06 00:43:37;;;;;;;23.02;10.30;;;15.80;95.00;;;;;;4199260;28;20413;-54
2023/06/06 00:45:40;;;;;;;17.38;9.75;;;15.90;94.80;;;;;;4198882;28;20083;-54
2023/06/06 00:47:42;;;;;;;19.30;11.10;;;15.90;94.80;;;;;;4199112;28;20040;-53
2023/06/06 00:49:47;;;;;;;16.92;9.95;;;16.00;94.70;;;;;;4198253;28;20047;-56
2023/06/06 00:51:50;;;;;;;21.60;9.80;;;16.00;94.90;;;;;;4198783;28;20052;-54
2023/06/06 00:53:55;;;;;;;16.77;10.77;;;15.90;94.80;;;;;;4199162;28;20451;-54
2023/06/06 00:56:00;;;;;;;19.80;11.48;;;15.90;94.80;;;;;;4198927;28;20049;-54
2023/06/06 00:58:04;;;;;;;17.33;11.18;;;16.00;94.80;;;;;;4199088;28;20418;-53
2023/06/06 01:00:08;;;;;;;28.15;13.48;;;16.00;94.80;;;;;;4197436;28;20102;-54
2023/06/06 01:02:14;;;;;;;16.42;11.23;;;16.00;94.70;;;;;;4198738;28;20118;-55
2023/06/06 01:04:17;;;;;;;21.08;12.05;;;16.00;94.70;;;;;;4197539;28;20044;-54
2023/06/06 01:06:22;;;;;;;19.70;11.23;;;15.90;94.90;;;;;;4199193;28;20453;-53
2023/06/06 01:08:24;;;;;;;18.42;12.10;;;15.90;95.00;;;;;;4198929;28;20063;-53
2023/06/06 01:10:30;;;;;;;19.75;11.45;;;15.80;95.00;;;;;;4197835;28;20102;-53
2023/06/06 01:12:43;;;;;;;20.10;12.43;;;15.80;95.20;;;;;;4198942;28;20445;-56
2023/06/06 01:14:56;;;;;;;20.65;11.38;;;15.80;95.20;;;;;;4198056;28;20139;-54
2023/06/06 01:17:02;;;;;;;23.88;11.48;;;15.70;95.30;;;;;;4197159;28;20410;-55
2023/06/06 01:19:09;;;;;;;16.83;10.20;;;15.60;95.30;;;;;;4198721;28;20048;-55
2023/06/06 01:21:11;;;;;;;23.85;13.80;;;15.60;95.30;;;;;;4197597;28;20049;-56
2023/06/06 01:23:15;;;;;;;21.75;13.15;;;15.70;95.40;;;;;;4198517;28;20049;-55
2023/06/06 01:25:19;;;;;;;23.40;14.43;;;15.50;95.50;;;;;;4198619;28;20470;-56
2023/06/06 01:27:23;;;;;;;25.10;13.88;;;15.50;95.70;;;;;;4211284;28;20048;-55
2023/06/06 01:29:25;;;;;;;22.58;13.95;;;15.40;95.90;;;;;;4216113;28;20044;-55
2023/06/06 01:31:32;;;;;;;24.05;13.45;;;15.30;96.10;;;;;;4216423;28;20044;-59
2023/06/06 01:33:40;;;;;;;23.70;12.05;;;15.30;96.10;;;;;;4217714;28;20055;-56
2023/06/06 01:35:54;;;;;;;19.90;11.73;;;15.20;96.30;;;;;;4217047;28;20458;-55
2023/06/06 01:38:04;;;;;;;21.77;11.63;;;15.20;96.30;;;;;;4213258;28;20093;-56
2023/06/06 01:40:11;;;;;;;21.20;11.43;;;15.20;96.20;;;;;;4197584;28;20466;-56
2023/06/06 01:42:14;;;;;;;23.13;11.23;;;15.20;96.30;;;;;;4198181;28;20044;-54
2023/06/06 01:44:17;;;;;;;28.58;11.52;;;15.20;96.50;;;;;;4197889;28;20057;-55
2023/06/06 01:46:22;;;;;;;19.02;10.98;;;15.10;96.60;;;;;;4198291;28;20049;-54
2023/06/06 01:48:25;;;;;;;22.00;11.27;;;15.20;96.50;;;;;;4198123;28;20068;-55
2023/06/06 01:50:27;;;;;;;18.60;11.15;;;15.10;96.60;;;;;;4197152;28;20068;-55
2023/06/06 01:52:33;;;;;;;22.45;11.35;;;15.00;96.60;;;;;;4198188;28;20056;-55
2023/06/06 01:54:36;;;;;;;22.27;12.38;;;15.10;96.70;;;;;;4197947;28;20044;-54
2023/06/06 01:56:39;;;;;;;16.38;10.60;;;15.00;96.60;;;;;;4198092;28;20072;-55
2023/06/06 01:58:41;;;;;;;18.48;11.77;;;15.00;96.80;;;;;;4197652;28;20041;-55
2023/06/06 02:00:44;;;;;;;23.13;11.18;;;15.00;96.90;;;;;;4196926;28;20106;-54
2023/06/06 02:02:46;;;;;;;20.55;11.00;;;14.90;97.30;;;;;;4198013;28;20045;-55
2023/06/06 02:04:50;;;;;;;18.67;10.73;;;14.90;97.10;;;;;;4197341;28;20045;-55
2023/06/06 02:06:52;;;;;;;22.30;12.18;;;14.90;97.20;;;;;;4197899;28;20418;-55
2023/06/06 02:08:55;;;;;;;20.85;11.32;;;14.80;97.20;;;;;;4198070;28;20110;-57
2023/06/06 02:10:57;;;;;;;21.23;11.23;;;14.80;97.30;;;;;;4196664;28;20123;-57
2023/06/06 02:13:01;;;;;;;23.15;12.38;;;14.80;97.50;;;;;;4197675;28;20052;-58
2023/06/06 02:15:05;;;;;;;24.90;12.73;;;14.70;97.50;;;;;;4197899;28;20040;-57
2023/06/06 02:17:07;;;;;;;23.23;12.43;;;14.60;97.70;;;;;;4197837;28;20045;-59
2023/06/06 02:19:09;;;;;;;22.25;12.20;;;14.60;97.60;;;;;;4197923;28;20048;-56
2023/06/06 02:21:15;;;;;;;22.40;11.90;;;14.60;97.90;;;;;;4197777;28;20057;-58
2023/06/06 02:23:18;;;;;;;23.17;12.27;;;14.60;97.90;;;;;;4201000;28;20045;-58
2023/06/06 02:25:23;;;;;;;23.73;12.80;;;14.60;98.00;;;;;;4200851;28;20123;-62
2023/06/06 02:27:29;;;;;;;20.50;12.02;;;14.50;98.10;;;;;;4212367;28;20047;-57
2023/06/06 02:29:32;;;;;;;22.27;11.05;;;14.50;98.20;;;;;;4214851;28;20128;-55
2023/06/06 02:31:36;;;;;;;23.90;13.32;;;14.50;98.20;;;;;;4213706;28;20044;-55
2023/06/06 02:33:38;;;;;;;28.90;13.27;;;14.50;98.10;;;;;;4214340;28;20094;-55
2023/06/06 02:35:40;;;;;;;21.65;12.98;;;14.40;98.30;;;;;;4214258;28;20048;-55
2023/06/06 02:37:42;;;;;;;22.48;12.88;;;14.40;98.40;;;;;;4213803;28;20371;-54
2023/06/06 02:39:44;;;;;;;24.17;12.27;;;14.40;98.30;;;;;;4197548;28;20044;-55
2023/06/06 02:41:47;;;;;;;20.33;13.43;;;14.40;98.40;;;;;;4195912;28;20119;-56
2023/06/06 02:43:49;;;;;;;23.42;12.25;;;14.40;98.50;;;;;;4197032;28;20131;-54
2023/06/06 02:45:53;;;;;;;26.30;13.80;;;14.30;98.50;;;;;;4197235;28;20054;-55
2023/06/06 02:47:55;;;;;;;19.17;12.50;;;14.40;98.50;;;;;;4197475;28;20048;-54
2023/06/06 02:49:57;;;;;;;24.60;12.88;;;14.50;98.40;;;;;;4197184;28;20497;-55
2023/06/06 02:51:59;;;;;;;26.42;13.40;;;14.40;98.30;;;;;;4196490;28;20044;-55
2023/06/06 02:54:02;;;;;;;23.73;14.27;;;14.40;98.50;;;;;;4197297;28;20398;-55
2023/06/06 02:56:04;;;;;;;30.83;14.95;;;14.30;98.50;;;;;;4196573;28;20044;-54
2023/06/06 02:58:24;;;;;;;24.20;13.77;;;14.40;98.60;;;;;;4197094;28;20048;-57
2023/06/06 03:00:30;;;;;;;27.00;13.57;;;14.30;98.60;;;;;;4196282;28;20048;-57
2023/06/06 03:02:40;;;;;;;23.42;13.27;;;14.30;98.70;;;;;;4197188;28;20045;-57
2023/06/06 03:04:46;;;;;;;23.67;14.20;;;14.30;98.80;;;;;;4197192;28;20076;-58
2023/06/06 03:06:58;;;;;;;26.20;14.05;;;14.30;98.60;;;;;;4197411;28;20040;-61
2023/06/06 03:09:03;;;;;;;25.85;13.30;;;14.20;98.80;;;;;;4197208;28;20102;-55
2023/06/06 03:11:06;;;;;;;28.25;14.40;;;14.20;98.80;;;;;;4195570;28;20336;-54
2023/06/06 03:13:08;;;;;;;25.15;15.00;;;14.20;98.90;;;;;;4197052;28;20040;-54
2023/06/06 03:15:10;;;;;;;22.30;14.52;;;14.20;99.00;;;;;;4197362;28;20185;-56
2023/06/06 03:17:12;;;;;;;26.80;13.60;;;14.10;99.10;;;;;;4197075;28;20053;-55
2023/06/06 03:19:16;;;;;;;28.65;14.82;;;14.10;99.10;;;;;;4196804;28;20056;-55
2023/06/06 03:21:18;;;;;;;25.02;14.10;;;14.20;99.00;;;;;;4195798;28;20051;-55
2023/06/06 03:23:21;;;;;;;31.55;15.90;;;14.20;98.90;;;;;;4197120;28;20067;-54
2023/06/06 03:25:26;;;;;;;27.73;15.95;;;14.20;98.90;;;;;;4196994;28;20052;-54
2023/06/06 03:27:28;;;;;;;;;;;14.20;99.10;;;;;;4212460;28;20044;-62
2023/06/06 03:29:31;;;;;;;27.27;15.30;;;14.10;99.40;;;;;;4215974;28;19924;-57
2023/06/06 03:31:33;;;;;;;29.15;15.70;;;14.00;99.50;;;;;;4215020;28;20048;-56
2023/06/06 03:33:36;;;;;;;29.60;15.70;;;14.00;99.50;;;;;;4214235;28;20052;-57
2023/06/06 03:35:40;;;;;;;20.63;12.68;;;14.10;99.40;;;;;;4214102;28;20040;-57
2023/06/06 03:37:43;;;;;;;22.67;15.67;;;14.10;99.40;;;;;;4196288;28;20405;-57
2023/06/06 03:39:51;;;;;;;23.95;15.25;;;14.10;99.30;;;;;;4199340;28;20052;-57
2023/06/06 03:41:58;;;;;;;30.63;16.67;;;14.10;99.30;;;;;;4199519;28;20041;-57
2023/06/06 03:44:00;;;;;;;26.35;15.30;;;14.00;99.50;;;;;;4200171;28;20506;-57
2023/06/06 03:46:02;;;;;;;26.67;16.27;;;14.00;99.60;;;;;;4200021;28;20106;-57
2023/06/06 03:48:24;;;;;;;29.33;17.27;;;13.90;99.70;;;;;;4200241;28;20057;-58
2023/06/06 03:50:28;;;;;;;26.52;16.80;;;14.00;99.80;;;;;;4199793;28;20045;-57
2023/06/06 03:52:38;;;;;;;32.50;18.50;;;14.00;99.60;;;;;;4199879;28;20045;-57
2023/06/06 03:54:41;;;;;;;30.60;17.15;;;13.90;99.90;;;;;;4200007;28;20044;-57
2023/06/06 03:56:44;;;;;;;32.17;17.67;;;13.80;99.90;;;;;;4200141;28;20433;-58
2023/06/06 03:58:49;;;;;;;34.97;17.92;;;13.90;99.70;;;;;;4199942;28;20087;-57
2023/06/06 04:00:52;;;;;;;33.17;19.23;;;13.90;99.90;;;;;;4199197;28;20071;-58
2023/06/06 04:03:27;;;;;;;33.03;18.10;;;13.90;99.90;;;;;;4194654;28;20114;-55
2023/06/06 04:05:32;;;;;;;27.55;18.02;;;13.90;99.80;;;;;;4199711;28;20079;-57
2023/06/06 04:07:36;;;;;;;29.23;16.50;;;13.90;99.90;;;;;;4199531;28;20049;-56
2023/06/06 04:09:39;;;;;;;29.20;18.90;;;14.00;99.90;;;;;;4164632;28;20049;-57
2023/06/06 04:11:41;;;;;;;28.55;18.13;;;13.90;99.90;;;;;;4198661;28;20516;-58
2023/06/06 04:14:00;;;;;;;31.67;18.42;;;13.90;99.90;;;;;;4199871;28;20052;-57
2023/06/06 04:16:02;;;;;;;30.40;18.27;;;13.80;99.90;;;;;;4199986;28;20112;-57
2023/06/06 04:18:05;;;;;;;32.80;18.50;;;13.80;99.90;;;;;;4199593;28;20526;-56
2023/06/06 04:20:12;;;;;;;31.10;18.67;;;13.90;99.90;;;;;;4199893;28;20397;-57
2023/06/06 04:22:15;;;;;;;31.20;19.58;;;13.90;99.90;;;;;;4198475;28;20151;-57
2023/06/06 04:24:19;;;;;;;29.52;18.88;;;13.90;99.90;;;;;;4198635;28;20083;-55
2023/06/06 04:26:23;;;;;;;30.98;19.05;;;13.90;99.90;;;;;;4203790;28;20075;-56
2023/06/06 04:28:32;;;;;;;39.08;18.10;;;13.90;99.90;;;;;;4216210;28;20048;-57
2023/06/06 04:31:00;;;;;;;37.22;19.02;;;13.90;99.90;;;;;;4215288;28;20066;-57
2023/06/06 04:33:02;;;;;;;32.70;19.33;;;13.90;99.90;;;;;;4216312;28;20048;-57
2023/06/06 04:35:31;;;;;;;32.28;19.33;;;13.90;99.90;;;;;;4199250;28;20048;-57
2023/06/06 04:37:33;;;;;;;28.85;18.25;;;14.00;99.90;;;;;;4199348;28;20048;-56
2023/06/06 04:39:39;;;;;;;29.30;17.95;;;14.00;99.90;;;;;;4215566;28;20048;-57
2023/06/06 04:41:42;;;;;;;33.65;21.00;;;14.00;99.90;;;;;;4214979;28;20494;-58
2023/06/06 04:43:49;;;;;;;35.78;19.67;;;14.00;99.90;;;;;;4215675;28;20052;-58
2023/06/06 04:45:53;;;;;;;32.92;19.60;;;14.10;99.90;;;;;;4216039;28;20147;-57
2023/06/06 04:47:55;;;;;;;29.52;17.65;;;14.10;99.90;;;;;;4215771;28;20058;-57
2023/06/06 04:49:58;;;;;;;33.70;19.10;;;14.10;99.90;;;;;;4215866;28;20054;-57
2023/06/06 04:57:03;;;;;;;;;;;14.20;99.80;;;;;;4216406;28;20358;-58
2023/06/06 04:59:05;;;;;;;30.90;19.73;;;14.20;99.90;;;;;;4215522;28;19943;-57
2023/06/06 05:01:10;;;;;;;31.73;18.13;;;14.30;99.90;;;;;;4214969;28;20044;-57
2023/06/06 05:03:24;;;;;;;31.05;18.13;;;14.30;99.70;;;;;;4215444;28;20044;-57
2023/06/06 05:05:26;;;;;;;35.70;19.55;;;14.30;99.80;;;;;;4215149;28;20066;-57
2023/06/06 05:07:29;;;;;;;32.95;18.83;;;14.40;99.80;;;;;;4215592;28;20541;-58
2023/06/06 05:09:31;;;;;;;30.95;19.70;;;14.50;99.50;;;;;;4215365;28;20047;-57
2023/06/06 05:11:34;;;;;;;33.40;18.65;;;14.50;99.40;;;;;;4214394;28;20047;-57
2023/06/06 05:13:39;;;;;;;29.23;19.25;;;14.50;99.40;;;;;;4215293;28;20048;-59
2023/06/06 05:15:42;;;;;;;30.90;21.17;;;14.50;99.50;;;;;;4215308;28;20051;-57
2023/06/06 05:17:55;;;;;;;32.38;20.65;;;14.50;99.60;;;;;;4215190;28;20162;-56
2023/06/06 05:19:57;;;;;;;31.10;19.10;;;14.60;99.60;;;;;;4214914;28;20051;-56
2023/06/06 05:22:02;;;;;;;35.17;19.67;;;14.60;99.40;;;;;;4214222;28;20505;-57
2023/06/06 05:24:05;;;;;;;29.13;20.45;;;14.60;99.30;;;;;;4215515;28;20119;-57
2023/06/06 05:26:07;;;;;;;35.95;20.05;;;14.80;99.30;;;;;;4216323;28;20052;-58
2023/06/06 05:28:11;;;;;;;34.30;21.80;;;14.80;99.20;;;;;;4217698;28;20119;-57
2023/06/06 05:30:17;;;;;;;37.72;22.10;;;14.90;99.00;;;;;;4217162;28;20417;-57
2023/06/06 05:32:19;;;;;;;41.90;23.75;;;14.90;99.30;;;;;;4214679;28;20044;-56
2023/06/06 05:34:22;;;;;;;35.70;23.58;;;14.80;99.40;;;;;;4215928;28;20484;-62
2023/06/06 05:36:24;;;;;;;41.35;23.83;;;14.70;99.40;;;;;;4217636;28;20147;-69
2023/06/06 05:38:27;;;;;;;42.22;24.92;;;14.70;99.40;;;;;;4211043;28;20036;-59
2023/06/06 05:40:29;;;;;;;42.65;24.98;;;14.60;99.70;;;;;;4201222;28;20052;-59
2023/06/06 05:42:31;;;;;;;42.38;24.08;;;14.60;99.80;;;;;;4198454;28;20121;-57
2023/06/06 05:44:33;;;;;;;40.17;23.83;;;14.60;99.90;;;;;;4198352;28;20052;-57
2023/06/06 05:46:37;;;;;;;38.25;23.00;;;14.60;99.80;;;;;;4198387;28;20045;-57
2023/06/06 05:48:40;;;;;;;41.20;25.75;;;14.70;99.80;;;;;;4198350;28;20056;-57
2023/06/06 05:50:43;;;;;;;45.17;24.83;;;14.80;99.60;;;;;;4197059;28;20422;-58
2023/06/06 05:52:45;;;;;;;49.50;25.92;;;14.80;99.60;;;;;;4198245;28;20110;-57
2023/06/06 05:54:49;;;;;;;42.50;22.85;;;14.90;99.50;;;;;;4197915;28;20040;-57
2023/06/06 05:56:51;;;;;;;43.85;25.70;;;14.90;99.30;;;;;;4197950;28;20486;-56
2023/06/06 05:58:54;;;;;;;41.35;23.80;;;14.90;99.40;;;;;;4197815;28;20456;-57
2023/06/06 06:00:57;;;;;;;43.35;23.25;;;15.00;99.30;;;;;;4196813;28;20098;-57
2023/06/06 06:03:01;;;;;;;43.88;24.95;;;15.10;99.10;;;;;;4197707;28;20138;-56
2023/06/06 06:05:04;;;;;;;49.30;26.67;;;15.20;98.80;;;;;;4197844;28;20044;-55
2023/06/06 06:07:07;;;;;;;43.55;26.80;;;15.10;98.90;;;;;;4198598;28;20048;-56
2023/06/06 06:09:10;;;;;;;46.92;27.40;;;15.00;99.10;;;;;;4198143;28;20127;-57
2023/06/06 06:11:13;;;;;;;40.40;26.42;;;14.90;99.20;;;;;;4197291;28;20122;-57
2023/06/06 06:13:15;;;;;;;39.75;25.98;;;15.00;99.30;;;;;;4198033;28;20406;-59
2023/06/06 06:15:17;;;;;;;46.40;26.45;;;15.20;99.00;;;;;;4198442;28;20566;-57
2023/06/06 06:17:20;;;;;;;44.30;25.80;;;15.20;98.80;;;;;;4198336;28;20041;-59
2023/06/06 06:19:24;;;;;;;43.47;26.67;;;15.20;99.00;;;;;;4197605;28;20461;-59
2023/06/06 06:21:26;;;;;;;45.63;25.48;;;15.20;98.80;;;;;;4196693;28;20104;-57
2023/06/06 06:23:29;;;;;;;44.38;25.85;;;15.20;98.90;;;;;;4197463;28;20070;-57
2023/06/06 06:25:31;;;;;;;51.47;27.90;;;15.20;98.90;;;;;;4197805;28;20114;-55
2023/06/06 06:27:33;;;;;;;49.50;24.77;;;15.20;99.00;;;;;;4211368;28;20047;-57
2023/06/06 06:29:35;;;;;;;47.10;26.40;;;15.20;99.00;;;;;;4214083;28;20044;-57
2023/06/06 06:31:37;;;;;;;52.10;24.90;;;15.40;98.80;;;;;;4213164;28;20044;-58
2023/06/06 06:33:39;;;;;;;48.85;26.42;;;15.50;98.70;;;;;;4210938;28;20091;-56
2023/06/06 06:35:43;;;;;;;49.92;25.15;;;15.50;98.40;;;;;;4197473;28;20119;-55
2023/06/06 06:37:46;;;;;;;44.25;25.40;;;15.80;98.30;;;;;;4198159;28;20544;-55
2023/06/06 06:39:49;;;;;;;45.00;24.02;;;16.00;97.90;;;;;;4196188;28;20075;-55
2023/06/06 06:41:52;;;;;;;50.00;25.88;;;16.20;97.50;;;;;;4213003;28;20054;-55
2023/06/06 06:43:55;;;;;;;55.33;27.40;;;16.30;97.30;;;;;;4213783;28;20058;-55
2023/06/06 06:45:57;;;;;;;58.28;27.45;;;16.30;97.00;;;;;;4214325;28;20148;-57
2023/06/06 06:48:01;;;;;;;54.17;26.70;;;16.40;97.00;;;;;;4213817;28;20056;-59
2023/06/06 06:50:04;;;;;;;57.17;26.10;;;16.50;97.00;;;;;;4213708;28;20127;-57
2023/06/06 06:52:12;;;;;;;41.38;25.60;;;16.80;96.60;;;;;;4212793;28;20056;-57
2023/06/06 06:54:15;;;;;;;45.53;24.73;;;16.70;96.40;;;;;;4213418;28;20047;-54
2023/06/06 06:56:18;;;;;;;45.53;24.00;;;17.00;96.40;;;;;;4213719;28;20079;-55
2023/06/06 06:58:25;;;;;;;42.15;23.25;;;17.20;96.10;;;;;;4214059;28;20055;-55
2023/06/06 07:00:28;;;;;;;45.55;23.33;;;17.30;95.90;;;;;;4213900;28;20477;-55
2023/06/06 07:02:30;;;;;;;42.22;22.75;;;17.30;95.70;;;;;;4212438;28;20119;-55
2023/06/06 07:04:32;;;;;;;41.47;22.52;;;17.40;95.70;;;;;;4213947;28;20063;-55
2023/06/06 07:06:36;;;;;;;60.17;28.05;;;17.60;95.40;;;;;;4213881;28;20126;-54
2023/06/06 07:08:42;;;;;;;45.73;25.53;;;17.70;94.90;;;;;;4213849;28;20044;-57
2023/06/06 07:10:44;;;;;;;45.05;25.85;;;17.70;95.00;;;;;;4213477;28;20131;-58
2023/06/06 07:12:48;;;;;;;43.53;25.75;;;17.70;94.80;;;;;;4212695;28;20323;-57
2023/06/06 07:14:50;;;;;;;58.65;26.10;;;17.80;95.10;;;;;;4212819;28;20044;-58
2023/06/06 07:16:52;;;;;;;46.50;25.30;;;17.90;94.70;;;;;;4213516;28;20048;-57
2023/06/06 07:18:55;;;;;;;45.13;25.13;;;18.00;94.60;;;;;;4213694;28;20059;-57
2023/06/06 07:20:58;;;;;;;50.05;25.23;;;18.10;94.30;;;;;;4213200;28;20401;-58
2023/06/06 07:23:00;;;;;;;50.22;25.40;;;18.20;94.20;;;;;;4215239;28;20103;-57
2023/06/06 07:25:05;;;;;;;50.45;26.45;;;18.10;94.10;;;;;;4215415;28;20052;-56
2023/06/06 07:27:08;;;;;;;44.25;26.17;;;18.40;93.70;;;;;;4214825;28;20466;-57
2023/06/06 07:29:11;;;;;;;43.90;23.55;;;18.50;93.90;;;;;;4213930;28;20462;-57
2023/06/06 07:31:13;;;;;;;42.47;24.65;;;18.50;93.60;;;;;;4212000;28;20066;-59
2023/06/06 07:33:15;;;;;;;40.85;23.17;;;18.80;93.40;;;;;;4213181;28;20048;-58
2023/06/06 07:35:21;;;;;;;50.97;24.75;;;19.10;93.30;;;;;;4213470;28;20079;-57
2023/06/06 07:37:23;;;;;;;44.47;23.88;;;18.90;92.80;;;;;;4213512;28;20122;-55
2023/06/06 07:39:25;;;;;;;40.95;24.83;;;19.00;93.00;;;;;;4198750;28;20041;-54
2023/06/06 07:41:30;;;;;;;36.65;24.85;;;18.80;92.80;;;;;;4195725;28;20068;-54
2023/06/06 07:43:32;;;;;;;52.90;24.25;;;18.70;93.50;;;;;;4196493;28;20131;-54
2023/06/06 07:45:34;;;;;;;42.60;23.30;;;18.70;93.40;;;;;;4196203;28;20426;-54
2023/06/06 07:47:36;;;;;;;44.58;23.70;;;18.70;93.40;;;;;;4196632;28;20450;-54
2023/06/06 07:49:40;;;;;;;46.00;25.35;;;18.60;93.50;;;;;;4196749;28;20068;-55
2023/06/06 07:51:42;;;;;;;47.58;25.77;;;18.40;93.60;;;;;;4195753;28;20124;-55
2023/06/06 07:53:44;;;;;;;41.08;25.00;;;18.20;94.00;;;;;;4195138;28;20053;-55
2023/06/06 07:55:47;;;;;;;60.55;24.85;;;18.30;93.80;;;;;;4196490;28;20087;-52
2023/06/06 07:57:52;;;;;;;42.88;25.05;;;18.40;93.90;;;;;;4195861;28;20040;-54
2023/06/06 07:59:55;;;;;;;38.00;22.55;;;18.60;93.80;;;;;;4196438;28;20052;-56
2023/06/06 08:01:57;;;;;;;37.58;23.30;;;18.80;93.60;;;;;;4195702;28;20311;-55
2023/06/06 08:03:59;;;;;;;38.83;24.35;;;19.00;93.20;;;;;;4196769;28;20074;-56
2023/06/06 08:06:02;;;;;;;41.33;24.85;;;19.10;93.10;;;;;;4196788;28;20474;-57
2023/06/06 08:08:06;;;;;;;37.08;23.88;;;19.30;92.80;;;;;;4196341;28;20500;-57
2023/06/06 08:10:10;;;;;;;43.28;25.30;;;19.30;92.50;;;;;;4196665;28;20067;-57
2023/06/06 08:12:12;;;;;;;30.67;21.98;;;19.40;92.60;;;;;;4195484;28;20075;-57
2023/06/06 08:14:15;;;;;;;43.90;26.10;;;19.40;92.40;;;;;;4196082;28;20044;-57
2023/06/06 08:16:17;;;;;;;40.30;23.30;;;19.60;92.40;;;;;;4196798;28;20040;-57
2023/06/06 08:18:19;;;;;;;66.68;24.90;;;19.60;92.50;;;;;;4196334;28;20110;-57
2023/06/06 08:20:21;;;;;;;39.42;23.80;;;19.60;92.20;;;;;;4196070;28;20048;-57
2023/06/06 08:22:27;;;;;;;39.53;24.13;;;19.70;92.10;;;;;;4195430;28;20132;-57
2023/06/06 08:24:30;;;;;;;43.70;23.00;;;19.70;92.10;;;;;;4195155;28;20441;-55
2023/06/06 08:26:32;;;;;;;42.88;22.30;;;19.60;92.00;;;;;;4204565;28;20055;-59
2023/06/06 08:28:34;;;;;;;36.75;23.30;;;19.80;91.90;;;;;;4215833;28;20044;-55
2023/06/06 08:30:38;;;;;;;33.38;21.77;;;19.80;91.70;;;;;;4216137;28;20055;-55
2023/06/06 08:32:40;;;;;;;33.72;21.52;;;19.90;91.90;;;;;;4214919;28;20043;-55
2023/06/06 08:34:42;;;;;;;32.13;21.67;;;20.00;91.70;;;;;;4215768;28;20051;-57
2023/06/06 08:36:46;;;;;;;34.97;22.67;;;20.10;91.80;;;;;;4216225;28;20517;-55
2023/06/06 08:38:48;;;;;;;48.88;23.10;;;20.10;91.80;;;;;;4206390;28;20040;-56
2023/06/06 08:40:55;;;;;;;50.42;25.05;;;19.90;91.70;;;;;;4199009;28;20135;-57
2023/06/06 08:42:59;;;;;;;46.53;23.00;;;20.00;91.50;;;;;;4197990;28;20052;-57
2023/06/06 08:45:03;;;;;;;39.35;23.48;;;20.10;91.70;;;;;;4199781;28;20520;-57
2023/06/06 08:47:08;;;;;;;30.80;21.15;;;20.10;91.40;;;;;;4200392;28;20063;-65
2023/06/06 08:49:12;;;;;;;41.80;24.02;;;20.20;91.40;;;;;;4200759;28;20472;-57
2023/06/06 08:51:15;;;;;;;47.72;24.45;;;20.10;91.50;;;;;;4199501;28;20414;-53
2023/06/06 08:53:18;;;;;;;32.70;22.27;;;20.00;91.70;;;;;;4199506;28;20047;-58
2023/06/06 08:55:21;;;;;;;30.48;18.33;;;20.00;91.40;;;;;;4199579;28;20040;-57
2023/06/06 08:57:23;;;;;;;45.15;21.27;;;19.90;91.70;;;;;;4199166;28;20083;-58
2023/06/06 08:59:25;;;;;;;36.53;21.33;;;20.10;91.50;;;;;;4199003;28;20040;-57
2023/06/06 09:01:28;;;;;;;30.73;20.65;;;20.30;91.60;;;;;;4197961;28;20581;-54
2023/06/06 09:03:32;;;;;;;34.47;19.98;;;20.40;90.90;;;;;;4198784;28;20082;-55
2023/06/06 09:05:38;;;;;;;31.60;19.70;;;20.20;90.80;;;;;;4198903;28;20412;-55
2023/06/06 09:07:40;;;;;;;37.42;19.73;;;20.00;90.90;;;;;;4198631;28;20136;-58
2023/06/06 09:09:45;;;;;;;39.53;20.15;;;20.00;91.10;;;;;;4198842;28;20048;-55
2023/06/06 09:11:47;;;;;;;30.90;18.55;;;20.10;90.90;;;;;;4197740;28;20106;-54
2023/06/06 09:13:49;;;;;;;30.75;20.33;;;20.20;91.00;;;;;;4198278;28;20051;-53
2023/06/06 09:15:53;;;;;;;32.42;20.50;;;20.30;90.80;;;;;;4198613;28;20053;-55
2023/06/06 09:17:55;;;;;;;37.00;20.67;;;20.30;90.70;;;;;;4198695;28;20072;-54
2023/06/06 09:19:59;;;;;;;36.65;21.65;;;20.20;91.00;;;;;;4199345;28;20552;-60
2023/06/06 09:22:07;;;;;;;34.97;19.58;;;20.10;91.30;;;;;;4199332;28;20044;-62
2023/06/06 09:24:09;;;;;;;28.25;18.33;;;20.10;91.10;;;;;;4199844;28;20508;-54
2023/06/06 09:26:18;;;;;;;28.27;18.83;;;20.30;91.20;;;;;;4202484;28;20097;-57
2023/06/06 09:28:20;;;;;;;36.67;21.65;;;20.70;90.60;;;;;;4215246;28;20055;-55
2023/06/06 09:30:23;;;;;;;34.95;20.17;;;20.70;90.40;;;;;;4215450;28;20055;-57
2023/06/06 09:32:29;;;;;;;31.65;20.35;;;20.80;90.40;;;;;;4214266;28;20497;-59
2023/06/06 09:34:32;;;;;;;34.85;20.35;;;20.70;90.60;;;;;;4215181;28;20079;-55
2023/06/06 09:36:38;;;;;;;35.00;20.35;;;20.50;90.60;;;;;;4214204;28;20279;-55
2023/06/06 09:38:40;;;;;;;41.53;18.00;;;20.60;90.70;;;;;;4206717;28;20040;-55
2023/06/06 09:40:44;;;;;;;29.55;20.17;;;20.70;90.80;;;;;;4198446;28;20048;-57
2023/06/06 09:42:48;;;;;;;35.47;20.52;;;20.80;90.40;;;;;;4196823;28;20041;-55
2023/06/06 09:44:50;;;;;;;40.75;21.25;;;21.00;90.50;;;;;;4197976;28;20091;-54
2023/06/06 09:46:58;;;;;;;35.47;19.35;;;21.10;90.30;;;;;;4198181;28;20070;-55
2023/06/06 09:49:01;;;;;;;28.42;18.15;;;21.20;90.30;;;;;;4198387;28;20045;-54
2023/06/06 09:51:04;;;;;;;29.08;18.60;;;21.40;90.30;;;;;;4198087;28;20064;-55
2023/06/06 09:53:12;;;;;;;32.88;18.40;;;21.60;90.10;;;;;;4197077;28;20114;-52
2023/06/06 09:55:16;;;;;;;34.83;19.83;;;21.50;90.00;;;;;;4196926;28;20047;-52
2023/06/06 09:57:19;;;;;;;28.00;20.23;;;21.50;89.70;;;;;;4197927;28;20048;-52
2023/06/06 09:59:25;;;;;;;32.47;18.00;;;21.60;89.10;;;;;;4198004;28;20044;-52
2023/06/06 10:01:32;;;;;;;31.13;19.30;;;21.70;89.80;;;;;;4197945;28;20558;-52
2023/06/06 10:03:37;;;;;;;26.65;18.10;;;21.90;89.20;;;;;;4197476;28;20040;-60
2023/06/06 10:05:43;;;;;;;27.67;17.02;;;21.90;89.60;;;;;;4198083;28;20072;-53
2023/06/06 10:07:45;;;;;;;35.72;19.65;;;22.10;89.60;;;;;;4197874;28;20057;-53
2023/06/06 10:09:50;;;;;;;34.47;18.60;;;22.10;88.20;;;;;;4197726;28;20073;-54
2023/06/06 10:11:53;;;;;;;26.92;18.10;;;22.10;88.70;;;;;;4196753;28;20052;-55
2023/06/06 10:13:56;;;;;;;28.65;18.10;;;22.00;88.40;;;;;;4197492;28;20090;-56
2023/06/06 10:15:59;;;;;;;31.75;18.83;;;22.10;88.10;;;;;;4197786;28;20478;-55
2023/06/06 10:18:02;;;;;;;33.90;18.15;;;22.10;87.70;;;;;;4197749;28;20145;-55
2023/06/06 10:20:06;;;;;;;28.20;17.88;;;22.10;87.90;;;;;;4197754;28;20054;-58
2023/06/06 10:22:08;;;;;;;34.70;18.88;;;22.10;87.90;;;;;;4196486;28;20049;-55
2023/06/06 10:24:10;;;;;;;24.80;16.30;;;22.10;87.70;;;;;;4196231;28;20052;-55
2023/06/06 10:26:18;;;;;;;29.88;16.67;;;22.10;87.80;;;;;;4200042;28;20410;-54
2023/06/06 10:28:25;;;;;;;28.70;16.65;;;22.10;87.50;;;;;;4214363;28;20055;-56
2023/06/06 10:30:34;;;;;;;26.98;15.75;;;22.40;87.50;;;;;;4214315;28;20064;-54
2023/06/06 10:32:47;;;;;;;34.85;17.27;;;22.30;87.70;;;;;;4212916;28;20054;-56
2023/06/06 10:34:52;;;;;;;35.88;17.60;;;22.40;87.30;;;;;;4214279;28;20040;-55